sensor_id;sensor_type;location;lat;lon;timestamp;P1;durP1;ratioP1;P2;durP2;ratioP2
19262;SDS011;9765;52.354;20.884;2023-09-19T09:58:01;16.63;;;10.47;;
19262;SDS011;9765;52.354;20.884;2023-09-19T10:04:54;12.40;;;8.30;;
19262;SDS011;9765;52.354;20.884;2023-09-19T10:07:55;15.03;;;8.93;;
19262;SDS011;9765;52.354;20.884;2023-09-19T10:32:01;12.87;;;7.70;;
19262;SDS011;9765;52.354;20.884;2023-09-19T10:37:55;10.20;;;7.17;;
19262;SDS011;9765;52.354;20.884;2023-09-19T10:40:32;10.87;;;7.37;;
19262;SDS011;9765;52.354;20.884;2023-09-19T10:43:29;10.30;;;6.73;;
19262;SDS011;9765;52.354;20.884;2023-09-19T10:46:09;10.23;;;6.07;;
19262;SDS011;9765;52.354;20.884;2023-09-19T10:48:50;11.77;;;7.00;;
19262;SDS011;9765;52.354;20.884;2023-09-19T10:51:24;11.77;;;7.33;;
19262;SDS011;9765;52.354;20.884;2023-09-19T10:54:27;7.63;;;5.57;;
19262;SDS011;9765;52.354;20.884;2023-09-19T10:57:02;10.90;;;6.20;;
19262;SDS011;9765;52.354;20.884;2023-09-19T10:59:36;8.27;;;5.97;;
19262;SDS011;9765;52.354;20.884;2023-09-19T11:06:04;11.10;;;5.57;;
19262;SDS011;9765;52.354;20.884;2023-09-19T11:08:58;11.27;;;6.50;;
19262;SDS011;9765;52.354;20.884;2023-09-19T11:11:47;9.27;;;5.83;;
19262;SDS011;9765;52.354;20.884;2023-09-19T11:14:29;8.60;;;5.70;;
19262;SDS011;9765;52.354;20.884;2023-09-19T11:20:21;8.73;;;5.27;;
19262;SDS011;9765;52.354;20.884;2023-09-19T11:23:31;11.77;;;6.37;;
19262;SDS011;9765;52.354;20.884;2023-09-19T11:26:02;8.53;;;5.30;;
19262;SDS011;9765;52.354;20.884;2023-09-19T11:28:49;11.77;;;6.00;;
19262;SDS011;9765;52.354;20.884;2023-09-19T11:32:03;10.53;;;5.90;;
19262;SDS011;9765;52.354;20.884;2023-09-19T11:34:57;10.77;;;6.10;;
19262;SDS011;9765;52.354;20.884;2023-09-19T11:40:52;12.03;;;5.63;;
19262;SDS011;9765;52.354;20.884;2023-09-19T11:47:03;10.57;;;6.53;;
19262;SDS011;9765;52.354;20.884;2023-09-19T11:49:32;11.20;;;6.40;;
19262;SDS011;9765;52.354;20.884;2023-09-19T11:52:05;8.47;;;6.27;;
19262;SDS011;9765;52.354;20.884;2023-09-19T11:54:36;11.57;;;6.27;;
19262;SDS011;9765;52.354;20.884;2023-09-19T11:57:18;10.47;;;6.33;;
19262;SDS011;9765;52.354;20.884;2023-09-19T12:00:10;10.23;;;5.80;;
19262;SDS011;9765;52.354;20.884;2023-09-19T12:02:48;11.30;;;6.47;;
19262;SDS011;9765;52.354;20.884;2023-09-19T12:05:30;13.03;;;6.50;;
19262;SDS011;9765;52.354;20.884;2023-09-19T12:07:58;11.33;;;5.70;;
19262;SDS011;9765;52.354;20.884;2023-09-19T12:10:31;12.80;;;6.27;;
19262;SDS011;9765;52.354;20.884;2023-09-19T12:13:16;11.07;;;6.67;;
19262;SDS011;9765;52.354;20.884;2023-09-19T12:15:49;9.17;;;5.97;;
19262;SDS011;9765;52.354;20.884;2023-09-19T12:18:27;10.83;;;6.37;;
19262;SDS011;9765;52.354;20.884;2023-09-19T12:21:23;9.97;;;6.13;;
19262;SDS011;9765;52.354;20.884;2023-09-19T12:23:57;13.13;;;6.77;;
19262;SDS011;9765;52.354;20.884;2023-09-19T12:26:30;11.70;;;6.73;;
19262;SDS011;9765;52.354;20.884;2023-09-19T12:29:19;11.13;;;6.93;;
19262;SDS011;9765;52.354;20.884;2023-09-19T12:31:53;11.70;;;7.07;;
19262;SDS011;9765;52.354;20.884;2023-09-19T12:34:29;13.00;;;7.03;;
19262;SDS011;9765;52.354;20.884;2023-09-19T12:37:07;11.63;;;6.37;;
19262;SDS011;9765;52.354;20.884;2023-09-19T12:39:47;10.47;;;6.63;;
19262;SDS011;9765;52.354;20.884;2023-09-19T12:42:21;11.83;;;6.93;;
19262;SDS011;9765;52.354;20.884;2023-09-19T12:45:02;10.67;;;6.93;;
19262;SDS011;9765;52.354;20.884;2023-09-19T12:51:06;14.03;;;7.50;;
19262;SDS011;9765;52.354;20.884;2023-09-19T12:53:57;10.93;;;6.87;;
19262;SDS011;9765;52.354;20.884;2023-09-19T12:56:35;16.00;;;6.50;;
19262;SDS011;9765;52.354;20.884;2023-09-19T12:59:29;10.17;;;6.50;;
19262;SDS011;9765;52.354;20.884;2023-09-19T13:02:16;11.33;;;6.73;;
19262;SDS011;9765;52.354;20.884;2023-09-19T13:11:15;13.83;;;6.70;;
19262;SDS011;9765;52.354;20.884;2023-09-19T13:12:52;14.40;;;6.93;;
19262;SDS011;9765;52.354;20.884;2023-09-19T13:15:56;10.33;;;6.00;;
19262;SDS011;9765;52.354;20.884;2023-09-19T13:18:47;21.63;;;6.73;;
19262;SDS011;9765;52.354;20.884;2023-09-19T13:21:28;13.70;;;6.90;;
19262;SDS011;9765;52.354;20.884;2023-09-19T13:27:23;14.50;;;6.53;;
19262;SDS011;9765;52.354;20.884;2023-09-19T13:30:00;10.80;;;6.37;;
19262;SDS011;9765;52.354;20.884;2023-09-19T13:32:33;12.40;;;6.70;;
19262;SDS011;9765;52.354;20.884;2023-09-19T13:35:15;10.77;;;6.40;;
19262;SDS011;9765;52.354;20.884;2023-09-19T13:37:52;10.93;;;6.23;;
19262;SDS011;9765;52.354;20.884;2023-09-19T13:40:49;13.53;;;6.60;;
19262;SDS011;9765;52.354;20.884;2023-09-19T13:43:45;10.50;;;6.40;;
19262;SDS011;9765;52.354;20.884;2023-09-19T15:11:36;9.80;;;4.47;;
19262;SDS011;9765;52.354;20.884;2023-09-19T15:18:10;9.80;;;4.47;;
19262;SDS011;9765;52.354;20.884;2023-09-19T15:33:50;6.47;;;4.17;;
19262;SDS011;9765;52.354;20.884;2023-09-19T15:58:58;10.00;;;4.03;;
19262;SDS011;9765;52.354;20.884;2023-09-19T16:01:36;13.60;;;3.93;;
19262;SDS011;9765;52.354;20.884;2023-09-19T16:04:08;8.23;;;3.60;;
19262;SDS011;9765;52.354;20.884;2023-09-19T16:06:41;4.67;;;3.47;;
19262;SDS011;9765;52.354;20.884;2023-09-19T16:09:08;6.90;;;3.97;;
19262;SDS011;9765;52.354;20.884;2023-09-19T16:12:08;7.73;;;3.57;;
